createdAt,value
2022-11-06T00:00:35.311Z,2.23
2022-11-06T00:03:02.754Z,2.13
2022-11-06T00:05:56.648Z,1.80
2022-11-06T00:08:27.751Z,2.20
2022-11-06T00:10:54.923Z,2.40
2022-11-06T00:13:22.027Z,2.00
2022-11-06T00:15:49.132Z,1.97
2022-11-06T00:18:16.315Z,2.17
2022-11-06T00:20:43.421Z,2.20
2022-11-06T00:23:10.545Z,2.10
2022-11-06T00:25:40.305Z,2.10
2022-11-06T00:28:07.422Z,2.30
2022-11-06T00:30:34.599Z,1.90
2022-11-06T00:33:01.740Z,2.00
2022-11-06T00:35:29.211Z,2.30
2022-11-06T00:37:56.388Z,2.03
2022-11-06T00:40:23.690Z,2.27
2022-11-06T00:42:54.019Z,2.33
2022-11-06T00:45:21.150Z,1.90
2022-11-06T00:47:48.294Z,2.10
2022-11-06T00:50:15.537Z,2.00
2022-11-06T00:52:42.624Z,1.87
2022-11-06T00:55:09.865Z,1.90
2022-11-06T00:57:36.963Z,2.30
2022-11-06T01:00:04.750Z,2.10
2022-11-06T01:02:31.984Z,1.93
2022-11-06T01:04:59.188Z,1.93
2022-11-06T01:07:26.327Z,1.97
2022-11-06T01:09:53.913Z,2.10
2022-11-06T01:12:21.062Z,2.17
2022-11-06T01:14:48.237Z,2.20
2022-11-06T01:17:15.339Z,1.80
2022-11-06T01:19:42.510Z,1.87
2022-11-06T01:22:09.796Z,2.03
2022-11-06T01:24:37.417Z,2.33
2022-11-06T01:27:25.525Z,2.20
2022-11-06T01:29:51.831Z,2.40
2022-11-06T01:32:19.046Z,2.10
2022-11-06T01:34:46.900Z,2.20
2022-11-06T01:37:14.926Z,2.17
2022-11-06T01:39:42.540Z,2.13
2022-11-06T01:42:11.862Z,2.00
2022-11-06T01:44:41.687Z,2.20
2022-11-06T01:47:20.310Z,2.20
2022-11-06T01:49:47.524Z,2.40
2022-11-06T01:52:15.470Z,2.27
2022-11-06T01:54:43.854Z,2.40
2022-11-06T01:57:11.723Z,2.10
2022-11-06T01:59:40.865Z,2.03
2022-11-06T02:02:08.317Z,2.57
2022-11-06T02:04:37.923Z,2.47
2022-11-06T02:07:05.982Z,2.60
2022-11-06T02:09:33.862Z,2.10
2022-11-06T02:12:08.965Z,2.30
2022-11-06T02:14:39.039Z,2.37
2022-11-06T02:17:21.207Z,2.50
2022-11-06T02:19:48.372Z,2.50
2022-11-06T02:22:27.771Z,2.40
2022-11-06T02:24:57.750Z,2.80
2022-11-06T02:27:25.851Z,2.90
2022-11-06T02:30:00.244Z,2.63
2022-11-06T02:32:31.086Z,2.67
2022-11-06T02:34:59.720Z,3.00
2022-11-06T02:37:31.360Z,2.80
2022-11-06T02:40:00.262Z,3.30
2022-11-06T02:42:29.097Z,3.47
2022-11-06T02:44:56.719Z,3.30
2022-11-06T02:47:25.627Z,3.80
2022-11-06T02:49:55.306Z,3.90
2022-11-06T02:52:31.375Z,3.80
2022-11-06T02:55:07.426Z,4.30
2022-11-06T02:57:36.746Z,4.07
2022-11-06T03:00:10.113Z,4.90
2022-11-06T03:02:41.094Z,4.93
2022-11-06T03:05:15.132Z,5.10
2022-11-06T03:07:52.792Z,5.17
2022-11-06T03:10:20.191Z,5.47
2022-11-06T03:12:57.489Z,5.63
2022-11-06T03:15:28.493Z,5.30
2022-11-06T03:17:55.591Z,5.23
2022-11-06T03:20:30.641Z,5.03
2022-11-06T03:23:06.830Z,5.30
2022-11-06T03:25:41.888Z,4.30
2022-11-06T03:28:11.219Z,4.50
2022-11-06T03:30:41.583Z,4.37
2022-11-06T03:33:12.957Z,4.67
2022-11-06T03:35:51.459Z,3.67
2022-11-06T03:38:30.243Z,4.57
2022-11-06T03:41:09.086Z,4.50
2022-11-06T03:43:37.362Z,4.87
2022-11-06T03:46:06.770Z,5.10
2022-11-06T03:48:40.350Z,5.40
2022-11-06T03:51:16.991Z,5.40
2022-11-06T03:53:52.054Z,5.73
2022-11-06T03:56:29.379Z,5.83
2022-11-06T03:58:57.281Z,5.57
2022-11-06T04:01:28.870Z,5.97
2022-11-06T04:03:59.420Z,5.80
2022-11-06T04:06:30.868Z,5.43
2022-11-06T04:09:19.050Z,5.50
2022-11-06T04:12:05.548Z,5.73
2022-11-06T04:14:33.685Z,5.70
2022-11-06T04:17:02.800Z,6.00
2022-11-06T04:19:29.924Z,6.40
2022-11-06T04:22:00.056Z,6.60
2022-11-06T04:24:48.617Z,7.00
2022-11-06T04:27:18.490Z,6.50
2022-11-06T04:29:53.397Z,6.60
2022-11-06T04:32:29.758Z,7.13
2022-11-06T04:35:03.718Z,7.77
2022-11-06T04:37:33.811Z,8.00
2022-11-06T04:40:03.855Z,8.07
2022-11-06T04:42:37.317Z,8.20
2022-11-06T04:45:27.457Z,7.97
2022-11-06T04:47:54.972Z,8.60
2022-11-06T04:50:24.115Z,9.10
2022-11-06T04:52:52.144Z,9.17
2022-11-06T04:55:19.316Z,9.97
2022-11-06T04:57:46.456Z,10.37
2022-11-06T05:00:14.766Z,10.43
2022-11-06T05:02:42.269Z,10.23
2022-11-06T05:05:09.698Z,9.10
2022-11-06T05:07:36.835Z,10.70
2022-11-06T05:10:04.366Z,12.17
2022-11-06T05:12:31.480Z,11.70
2022-11-06T05:14:58.591Z,9.97
2022-11-06T05:17:25.730Z,9.37
2022-11-06T05:19:52.827Z,11.73
2022-11-06T05:22:38.724Z,11.07
2022-11-06T05:25:06.207Z,9.87
2022-11-06T05:27:33.325Z,12.17
2022-11-06T05:30:00.449Z,10.30
2022-11-06T05:32:27.523Z,11.03
2022-11-06T05:34:54.618Z,11.33
2022-11-06T05:37:21.778Z,10.17
2022-11-06T05:39:48.897Z,9.53
2022-11-06T05:42:16.000Z,9.87
2022-11-06T05:44:43.203Z,10.10
2022-11-06T05:47:10.346Z,9.33
2022-11-06T05:49:37.551Z,9.17
2022-11-06T05:52:04.784Z,8.53
2022-11-06T05:54:31.897Z,8.63
2022-11-06T05:56:58.998Z,8.80
2022-11-06T05:59:26.103Z,8.80
2022-11-06T06:01:53.317Z,9.00
2022-11-06T06:04:20.489Z,8.33
2022-11-06T06:06:47.622Z,8.50
2022-11-06T06:09:14.779Z,8.33
2022-11-06T06:11:41.945Z,6.87
2022-11-06T06:14:09.047Z,6.00
2022-11-06T06:16:36.296Z,4.63
2022-11-06T06:19:03.445Z,4.80
2022-11-06T06:21:30.617Z,5.30
2022-11-06T06:23:58.061Z,4.27
2022-11-06T06:26:25.520Z,3.97
2022-11-06T06:28:52.608Z,3.60
2022-11-06T06:31:19.728Z,3.37
2022-11-06T06:33:46.961Z,2.63
2022-11-06T06:36:14.074Z,2.03
2022-11-06T06:38:41.187Z,2.00
2022-11-06T06:41:09.078Z,2.30
2022-11-06T06:43:36.376Z,2.20
2022-11-06T06:46:05.018Z,1.80
2022-11-06T06:48:32.365Z,2.00
2022-11-06T06:51:00.567Z,2.00
2022-11-06T06:53:28.064Z,2.00
2022-11-06T06:55:55.163Z,2.30
2022-11-06T06:58:22.490Z,2.13
2022-11-06T07:00:49.848Z,2.47
2022-11-06T07:03:17.015Z,2.20
2022-11-06T07:05:44.410Z,2.07
2022-11-06T07:08:11.836Z,2.50
2022-11-06T07:10:39.151Z,2.33
2022-11-06T07:13:06.300Z,2.30
2022-11-06T07:15:33.922Z,2.37
2022-11-06T07:18:07.652Z,3.00
2022-11-06T07:20:35.204Z,3.10
2022-11-06T07:23:07.115Z,3.40
2022-11-06T07:25:34.326Z,4.20
2022-11-06T07:28:02.938Z,4.60
2022-11-06T07:30:30.292Z,4.70
2022-11-06T07:32:57.428Z,5.07
2022-11-06T07:35:24.543Z,5.60
2022-11-06T07:37:51.662Z,5.77
2022-11-06T07:40:18.789Z,6.10
2022-11-06T07:42:45.903Z,6.30
2022-11-06T07:45:13.005Z,5.47
2022-11-06T07:47:40.208Z,5.23
2022-11-06T07:50:07.485Z,5.77
2022-11-06T07:52:34.614Z,6.07
2022-11-06T07:55:01.718Z,6.70
2022-11-06T07:57:28.891Z,6.20
2022-11-06T07:59:55.977Z,5.70
2022-11-06T08:02:23.291Z,7.20
2022-11-06T08:04:50.411Z,6.80
2022-11-06T08:07:17.551Z,7.03
2022-11-06T08:09:44.691Z,7.30
2022-11-06T08:12:14.504Z,7.27
2022-11-06T08:14:41.793Z,7.47
2022-11-06T08:17:08.911Z,6.33
2022-11-06T08:19:36.020Z,6.77
2022-11-06T08:22:03.569Z,6.83
2022-11-06T08:24:30.697Z,6.97
2022-11-06T08:26:59.293Z,6.93
2022-11-06T08:29:26.383Z,6.93
2022-11-06T08:31:53.544Z,6.50
2022-11-06T08:34:20.704Z,6.23
2022-11-06T08:36:52.025Z,6.60
2022-11-06T08:39:19.221Z,6.00
2022-11-06T08:41:46.418Z,6.27
2022-11-06T08:44:13.556Z,6.20
2022-11-06T08:46:40.681Z,6.27
2022-11-06T08:49:07.890Z,6.40
2022-11-06T08:51:35.040Z,6.37
2022-11-06T08:54:02.220Z,6.80
2022-11-06T08:56:29.384Z,6.37
2022-11-06T08:58:57.103Z,6.67
2022-11-06T09:01:24.495Z,6.60
2022-11-06T09:03:51.924Z,5.97
2022-11-06T09:06:19.062Z,5.80
2022-11-06T09:08:46.179Z,5.30
2022-11-06T09:11:13.390Z,5.53
2022-11-06T09:13:40.523Z,4.37
2022-11-06T09:16:12.788Z,4.63
2022-11-06T09:18:42.606Z,4.63
2022-11-06T09:21:09.741Z,4.80
2022-11-06T09:23:37.018Z,4.53
2022-11-06T09:26:04.282Z,4.67
2022-11-06T09:28:31.451Z,4.10
2022-11-06T09:30:58.563Z,4.83
2022-11-06T09:33:25.843Z,4.87
2022-11-06T09:35:52.978Z,5.27
2022-11-06T09:38:20.171Z,5.47
2022-11-06T09:40:47.261Z,4.97
2022-11-06T09:43:20.965Z,5.33
2022-11-06T09:45:55.902Z,4.90
2022-11-06T09:48:26.088Z,4.70
2022-11-06T09:50:56.778Z,4.50
2022-11-06T09:53:44.116Z,4.50
2022-11-06T09:56:13.608Z,4.23
2022-11-06T09:58:42.325Z,4.40
2022-11-06T10:01:23.254Z,4.47
2022-11-06T10:03:59.457Z,4.20
2022-11-06T10:06:27.999Z,4.23
2022-11-06T10:08:57.826Z,4.10
2022-11-06T10:11:27.737Z,3.60
2022-11-06T10:14:13.502Z,4.20
2022-11-06T10:16:46.870Z,3.43
2022-11-06T10:19:32.454Z,3.97
2022-11-06T10:22:09.009Z,3.77
2022-11-06T10:24:53.849Z,4.27
2022-11-06T10:27:27.163Z,3.80
2022-11-06T10:30:03.546Z,4.50
2022-11-06T10:32:57.349Z,3.67
2022-11-06T10:35:26.382Z,4.30
2022-11-06T10:38:00.753Z,3.63
2022-11-06T10:40:30.333Z,3.73
2022-11-06T10:43:03.733Z,3.57
2022-11-06T10:45:30.983Z,3.37
2022-11-06T10:48:11.807Z,3.00
2022-11-06T10:50:46.700Z,2.87
2022-11-06T10:53:24.932Z,3.00
2022-11-06T10:56:09.694Z,2.80
2022-11-06T10:58:38.090Z,2.90
2022-11-06T11:01:06.514Z,2.90
2022-11-06T11:03:35.984Z,2.60
2022-11-06T11:06:04.984Z,2.23
2022-11-06T11:08:33.874Z,2.77
2022-11-06T11:11:05.847Z,2.50
2022-11-06T11:13:33.313Z,2.23
2022-11-06T11:16:00.476Z,2.20
2022-11-06T11:18:31.594Z,2.40
2022-11-06T11:21:25.276Z,1.90
2022-11-06T11:24:11.867Z,2.30
2022-11-06T11:26:47.645Z,1.97
2022-11-06T11:29:16.931Z,2.30
2022-11-06T11:31:47.072Z,2.20
2022-11-06T11:34:28.317Z,2.37
2022-11-06T11:37:03.070Z,2.13
2022-11-06T11:39:35.133Z,1.93
2022-11-06T11:42:21.130Z,2.03
2022-11-06T11:44:48.251Z,2.03
2022-11-06T11:47:23.016Z,2.43
2022-11-06T11:49:50.185Z,2.50
2022-11-06T11:52:19.984Z,2.33
2022-11-06T11:54:49.163Z,2.00
2022-11-06T11:57:22.036Z,1.87
2022-11-06T11:59:55.211Z,2.50
2022-11-06T12:02:31.790Z,2.40
2022-11-06T12:05:04.045Z,2.20
2022-11-06T12:07:31.142Z,2.07
2022-11-06T12:09:59.672Z,2.33
2022-11-06T12:12:31.374Z,2.23
2022-11-06T12:15:06.268Z,2.50
2022-11-06T12:17:34.761Z,2.63
2022-11-06T12:20:03.248Z,2.50
2022-11-06T12:22:34.280Z,2.30
2022-11-06T12:25:04.484Z,2.20
2022-11-06T12:27:37.822Z,2.10
2022-11-06T12:30:12.232Z,2.10
2022-11-06T12:32:58.126Z,2.20
2022-11-06T12:35:43.561Z,2.10
2022-11-06T12:38:18.220Z,2.20
2022-11-06T12:40:51.457Z,2.17
2022-11-06T12:43:24.280Z,2.63
2022-11-06T12:45:59.213Z,2.37
2022-11-06T12:48:35.649Z,2.57
2022-11-06T12:51:07.921Z,2.23
2022-11-06T12:53:39.732Z,2.23
2022-11-06T12:56:21.432Z,1.97
2022-11-06T12:59:07.279Z,2.60
2022-11-06T13:01:43.196Z,1.80
2022-11-06T13:04:10.609Z,2.10
2022-11-06T13:06:37.843Z,2.40
2022-11-06T13:09:22.132Z,2.33
2022-11-06T13:11:55.296Z,2.20
2022-11-06T13:14:22.545Z,2.33
2022-11-06T13:16:55.885Z,2.80
2022-11-06T13:19:30.441Z,2.47
2022-11-06T13:21:57.663Z,2.40
2022-11-06T13:24:38.064Z,2.50
2022-11-06T13:27:09.607Z,2.50
2022-11-06T13:29:38.475Z,3.00
2022-11-06T13:32:09.602Z,2.47
2022-11-06T13:34:38.276Z,2.70
2022-11-06T13:37:16.849Z,3.10
2022-11-06T13:39:57.042Z,2.80
2022-11-06T13:42:27.793Z,2.87
2022-11-06T13:44:55.540Z,2.73
2022-11-06T13:47:34.098Z,2.33
2022-11-06T13:50:01.164Z,2.67
2022-11-06T13:52:34.351Z,2.70
2022-11-06T13:55:01.460Z,3.00
2022-11-06T13:57:41.578Z,3.20
2022-11-06T14:00:22.287Z,3.07
2022-11-06T14:02:58.262Z,3.20
2022-11-06T14:05:34.266Z,3.20
2022-11-06T14:08:03.665Z,2.93
2022-11-06T14:10:34.895Z,3.27
2022-11-06T14:13:03.047Z,3.60
2022-11-06T14:15:35.267Z,3.73
2022-11-06T14:18:02.678Z,3.83
2022-11-06T14:20:36.818Z,3.33
2022-11-06T14:23:39.550Z,3.53
2022-11-06T14:26:13.577Z,3.20
2022-11-06T14:28:43.026Z,3.70
2022-11-06T14:31:13.407Z,3.63
2022-11-06T14:33:43.133Z,3.60
2022-11-06T14:36:29.755Z,3.77
2022-11-06T14:38:57.041Z,3.53
2022-11-06T14:41:36.253Z,3.93
2022-11-06T14:44:12.442Z,3.67
2022-11-06T14:46:40.017Z,4.23
2022-11-06T14:49:10.168Z,4.50
2022-11-06T14:51:37.299Z,4.87
2022-11-06T14:54:15.068Z,5.00
2022-11-06T14:56:42.428Z,5.10
2022-11-06T14:59:17.039Z,5.50
2022-11-06T15:01:54.465Z,5.83
2022-11-06T15:04:22.341Z,5.73
2022-11-06T15:06:50.943Z,5.87
2022-11-06T15:09:24.110Z,6.90
2022-11-06T15:11:56.613Z,6.50
2022-11-06T15:14:24.246Z,6.57
2022-11-06T15:17:06.513Z,6.77
2022-11-06T15:19:35.982Z,6.37
2022-11-06T15:22:12.308Z,6.83
2022-11-06T15:24:42.602Z,6.40
2022-11-06T15:27:13.306Z,6.63
2022-11-06T15:29:44.727Z,6.37
2022-11-06T15:32:14.528Z,6.50
2022-11-06T15:34:43.653Z,6.60
2022-11-06T15:37:12.620Z,7.60
2022-11-06T15:39:41.332Z,7.10
2022-11-06T15:42:16.501Z,7.37
2022-11-06T15:44:44.917Z,7.03
2022-11-06T15:47:20.934Z,6.70
2022-11-06T15:49:48.082Z,6.73
2022-11-06T15:52:18.732Z,7.30
2022-11-06T15:54:48.687Z,6.77
2022-11-06T15:57:19.211Z,6.53
2022-11-06T15:59:46.409Z,6.87
2022-11-06T16:02:22.310Z,7.13
2022-11-06T16:04:50.270Z,6.93
2022-11-06T16:07:18.827Z,6.93
2022-11-06T16:09:46.308Z,6.60
2022-11-06T16:12:15.221Z,6.97
2022-11-06T16:14:46.100Z,6.50
2022-11-06T16:17:23.385Z,6.63
2022-11-06T16:19:51.192Z,6.73
2022-11-06T16:22:20.088Z,6.80
2022-11-06T16:24:52.416Z,7.40
2022-11-06T16:27:19.980Z,7.23
2022-11-06T16:29:52.706Z,7.03
2022-11-06T16:32:21.806Z,7.10
2022-11-06T16:34:49.278Z,6.40
2022-11-06T16:37:16.361Z,5.63
2022-11-06T16:39:53.293Z,7.03
2022-11-06T16:42:23.467Z,7.30
2022-11-06T16:45:10.826Z,7.07
2022-11-06T16:47:37.949Z,7.43
2022-11-06T16:50:25.046Z,6.90
2022-11-06T16:52:55.289Z,7.47
2022-11-06T16:55:30.606Z,6.70
2022-11-06T16:58:01.964Z,7.00
2022-11-06T17:00:31.157Z,6.53
2022-11-06T17:03:01.291Z,6.37
2022-11-06T17:05:33.753Z,6.87
2022-11-06T17:08:19.213Z,6.60
2022-11-06T17:10:46.934Z,6.67
2022-11-06T17:13:31.935Z,5.90
2022-11-06T17:16:00.260Z,6.23
2022-11-06T17:18:28.481Z,7.00
2022-11-06T17:20:59.692Z,6.90
2022-11-06T17:23:27.520Z,6.63
2022-11-06T17:25:59.993Z,6.33
2022-11-06T17:28:27.887Z,6.23
2022-11-06T17:30:55.168Z,6.50
2022-11-06T17:33:22.422Z,6.83
2022-11-06T17:35:49.763Z,6.13
2022-11-06T17:38:17.967Z,6.03
2022-11-06T17:40:45.881Z,6.13
2022-11-06T17:43:13.274Z,6.03
2022-11-06T17:45:42.221Z,6.23
2022-11-06T17:48:09.421Z,6.30
2022-11-06T17:51:15.146Z,6.50
2022-11-06T17:53:42.340Z,6.40
2022-11-06T17:56:09.595Z,5.70
2022-11-06T17:58:36.761Z,6.97
2022-11-06T18:01:08.199Z,5.90
2022-11-06T18:03:36.918Z,6.67
2022-11-06T18:06:04.304Z,6.23
2022-11-06T18:08:31.539Z,6.63
2022-11-06T18:10:58.838Z,6.47
2022-11-06T18:13:25.960Z,6.67
2022-11-06T18:15:53.469Z,5.87
2022-11-06T18:18:20.858Z,6.50
2022-11-06T18:20:48.420Z,6.67
2022-11-06T18:23:15.647Z,8.20
2022-11-06T18:25:42.894Z,7.10
2022-11-06T18:28:10.456Z,7.30
2022-11-06T18:30:41.143Z,7.20
2022-11-06T18:33:08.253Z,7.23
2022-11-06T18:35:35.530Z,6.80
2022-11-06T18:38:02.871Z,7.27
2022-11-06T18:40:30.299Z,6.63
2022-11-06T18:42:57.442Z,7.20
2022-11-06T18:45:24.607Z,7.40
2022-11-06T18:47:51.753Z,7.43
2022-11-06T18:50:18.895Z,8.27
2022-11-06T18:52:57.577Z,8.03
2022-11-06T18:55:25.225Z,8.23
2022-11-06T18:57:52.370Z,9.00
2022-11-06T19:00:19.536Z,8.33
2022-11-06T19:02:46.809Z,8.80
2022-11-06T19:05:14.122Z,8.63
2022-11-06T19:07:42.095Z,7.17
2022-11-06T19:10:12.950Z,8.73
2022-11-06T19:12:40.082Z,9.17
2022-11-06T19:15:07.427Z,8.83
2022-11-06T19:17:34.543Z,9.40
2022-11-06T19:20:01.701Z,9.80
2022-11-06T19:22:29.436Z,9.47
2022-11-06T19:24:56.568Z,9.70
2022-11-06T19:27:23.693Z,9.30
2022-11-06T19:29:51.371Z,10.03
2022-11-06T19:32:18.465Z,9.40
2022-11-06T19:34:45.621Z,9.40
2022-11-06T19:37:12.775Z,9.57
2022-11-06T19:39:39.914Z,9.13
2022-11-06T19:42:07.054Z,9.33
2022-11-06T19:44:34.162Z,10.23
2022-11-06T19:47:01.252Z,10.17
2022-11-06T19:49:28.444Z,10.90
2022-11-06T19:51:55.519Z,11.30
2022-11-06T19:54:22.676Z,11.40
2022-11-06T19:57:27.849Z,11.37
2022-11-06T19:59:37.577Z,11.13
2022-11-06T20:02:04.860Z,12.17
2022-11-06T20:04:32.050Z,11.70
2022-11-06T20:06:59.146Z,11.93
2022-11-06T20:09:26.342Z,12.20
2022-11-06T20:11:53.644Z,11.40
2022-11-06T20:14:21.841Z,11.93
2022-11-06T20:16:50.009Z,10.47
2022-11-06T20:19:17.183Z,9.17
2022-11-06T20:21:44.435Z,8.77
2022-11-06T20:24:11.743Z,8.60
2022-11-06T20:26:39.326Z,7.30
2022-11-06T20:29:06.664Z,6.03
2022-11-06T20:31:33.962Z,5.07
2022-11-06T20:34:01.224Z,4.90
2022-11-06T20:36:29.821Z,4.70
2022-11-06T20:38:58.238Z,3.80
2022-11-06T20:41:25.755Z,3.60
2022-11-06T20:43:52.955Z,3.50
2022-11-06T20:46:21.169Z,2.90
2022-11-06T20:48:48.877Z,2.83
2022-11-06T20:51:17.480Z,2.50
2022-11-06T20:53:44.981Z,2.27
2022-11-06T20:56:13.463Z,1.90
2022-11-06T20:58:40.663Z,2.00
2022-11-06T21:01:10.316Z,1.90
2022-11-06T21:03:38.202Z,1.60
2022-11-06T21:06:05.679Z,1.40
2022-11-06T21:08:34.678Z,1.50
2022-11-06T21:11:06.266Z,1.47
2022-11-06T21:13:33.885Z,1.50
2022-11-06T21:16:02.333Z,1.40
2022-11-06T21:18:30.045Z,1.50
2022-11-06T21:20:57.182Z,1.60
2022-11-06T21:23:24.375Z,1.87
2022-11-06T21:25:51.491Z,2.10
2022-11-06T21:28:18.585Z,2.70
2022-11-06T21:30:46.925Z,3.00
2022-11-06T21:33:14.912Z,2.60
2022-11-06T21:35:42.763Z,2.70
2022-11-06T21:38:09.911Z,2.80
2022-11-06T21:40:39.645Z,3.70
2022-11-06T21:43:06.893Z,4.40
2022-11-06T21:45:34.209Z,4.50
2022-11-06T21:48:01.397Z,5.00
2022-11-06T21:50:30.232Z,4.77
2022-11-06T21:53:16.022Z,4.27
2022-11-06T21:55:58.536Z,4.50
2022-11-06T21:58:25.690Z,5.17
2022-11-06T22:00:52.810Z,4.83
2022-11-06T22:03:20.147Z,4.93
2022-11-06T22:05:47.256Z,6.07
2022-11-06T22:08:14.728Z,6.83
2022-11-06T22:10:42.057Z,7.57
2022-11-06T22:13:09.256Z,7.93
2022-11-06T22:15:36.418Z,8.30
2022-11-06T22:18:03.578Z,8.77
2022-11-06T22:20:30.677Z,9.20
2022-11-06T22:22:57.782Z,9.53
2022-11-06T22:25:24.944Z,8.67
2022-11-06T22:27:52.134Z,8.97
2022-11-06T22:30:19.242Z,8.90
2022-11-06T22:32:46.343Z,9.33
2022-11-06T22:35:13.501Z,8.60
2022-11-06T22:37:40.702Z,9.20
2022-11-06T22:40:08.198Z,8.70
2022-11-06T22:42:35.299Z,8.40
2022-11-06T22:45:02.919Z,9.57
2022-11-06T22:47:30.071Z,7.80
2022-11-06T22:49:57.177Z,8.40
2022-11-06T22:52:24.412Z,8.00
2022-11-06T22:54:51.522Z,8.37
2022-11-06T22:57:18.694Z,7.83
2022-11-06T22:59:45.843Z,7.70
2022-11-06T23:02:13.106Z,7.43
2022-11-06T23:04:40.344Z,7.60
2022-11-06T23:07:07.528Z,7.83
2022-11-06T23:09:34.687Z,7.10
2022-11-06T23:12:01.973Z,7.43
2022-11-06T23:14:30.433Z,7.30
2022-11-06T23:16:57.607Z,7.13
2022-11-06T23:19:25.246Z,7.27
2022-11-06T23:22:12.548Z,7.23
2022-11-06T23:24:39.998Z,6.90
2022-11-06T23:27:07.273Z,7.77
2022-11-06T23:29:34.448Z,7.17
2022-11-06T23:32:01.631Z,7.17
2022-11-06T23:34:28.818Z,6.80
2022-11-06T23:36:56.011Z,7.03
2022-11-06T23:39:23.197Z,6.73
2022-11-06T23:41:51.130Z,7.03
2022-11-06T23:44:36.949Z,6.23
2022-11-06T23:47:04.185Z,6.57
2022-11-06T23:49:31.385Z,6.30
2022-11-06T23:51:58.632Z,5.93
2022-11-06T23:54:25.825Z,5.80
2022-11-06T23:56:53.009Z,6.53
2022-11-06T23:59:20.377Z,6.13
